LFMLLFMO

Guest
Details From LFML - Marseille Provence
To LFMO - Caritat AB
Flight Number -
Tags generated
Created
Modified
Stats Distance 45 nm / 83 km
Max Altitude 0 ft / 0 m
Waypoints 3
Social Downloads 0
Likes 0
Share VATSIM

Download

Looking for another format? Having issues loading an existing format? Contact us
Advertisement - Login to hide

Notes

Basic altitude profile: - Ascent Rate: 2500ft/min - Ascent Speed: 250kts - Cruise Altitude: 35000ft - Cruise Speed: 420kts - Descent Rate: 1500ft/min - Descent Speed: 250kts

Route

LFML MJ LFMO

ID Type Via Altitude Latitude Longitude Leg Dist Tot Dist Heading (true) Name
O LFML APT - 0 ft / 0 m 43.43589˚ 5.21328˚ - 0 nm - Marseille Provence
MJ NDB - 0 ft / 0 m 43.43832˚ 5.21748˚ 0 nm 0 nm 51° / 51° MARSEILLE NDB
O LFMO APT - 0 ft / 0 m 44.14016˚ 4.86851˚ 44 nm 45 nm 340° / 340° Caritat AB

Altitude Profile

Advertisement - Login to hide

LFML

Details ICAO LFML (MRS)
Name Marseille Provence
Region France
Timezone Europe/Paris (UTC+1.0)
Stats Elevation 74 ft / 23 m (AMSL)
Location 43.435892° 5.213282°
Runways 2
Magnetic Variation 1.552° E

METAR

LFML 120400Z AUTO VRB03KT CAVOK 04/03 Q1006 NOSIG

Decode

TAF

TAF TAF LFML 120200Z 1203/1309 VRB02KT CAVOK BECMG 1212/1214 32012KT TX11/1213Z TN01/1305Z

Decode

Departure Runways

ID Width Length Bearing (true) Bearing (mag) Surface Threshold Offset Overrun Length
13L 148 ft / 45 m 11,478 ft / 3,499 m 133.99° 132.44° Asphalt 1,115 ft / 340 m 0 ft / 0 m
13R 148 ft / 45 m 7,981 ft / 2,433 m 134.90° 133.35° Asphalt 0 ft / 0 m 0 ft / 0 m
31L 148 ft / 45 m 7,981 ft / 2,433 m 314.91° 313.36° Asphalt 344 ft / 105 m 0 ft / 0 m
31R 148 ft / 45 m 11,478 ft / 3,499 m 314.01° 312.46° Asphalt 2,165 ft / 660 m 0 ft / 0 m

LFMO

Details ICAO LFMO
Name Caritat AB
Region France
Timezone Europe/Paris (UTC+1.0)
Stats Elevation 197 ft / 60 m (AMSL)
Location 44.140162° 4.868512°
Runways 2
Magnetic Variation 1.460° E

METAR

LFMO 120400Z AUTO 15003KT 9999 FEW052 04/03 Q1006 TEMPO 0500 FG VV///

Decode

TAF

TAF LFMO 120200Z 1203/1303 13006KT 9999 SCT060 BECMG 1203/1205 3000 BR BKN005 TEMPO 1205/1207 0500 FG VV/// BECMG 1210/1212 35010KT 9999 SCT050 BECMG 1212/1214 35015G25KT

Decode

Destination Runways

ID Width Length Bearing (true) Bearing (mag) Surface Threshold Offset Overrun Length
14 197 ft / 60 m 7,952 ft / 2,424 m 144.26° 142.80° Concrete 0 ft / 0 m 899 ft / 274 m
15 197 ft / 60 m 7,897 ft / 2,407 m 144.26° 142.80° Concrete 0 ft / 0 m 983 ft / 300 m
32 197 ft / 60 m 7,952 ft / 2,424 m 324.27° 322.81° Concrete 0 ft / 0 m 984 ft / 300 m
33 197 ft / 60 m 7,897 ft / 2,407 m 324.27° 322.81° Concrete 0 ft / 0 m 983 ft / 300 m

Approach Navaids

Runway Type Ident Frequency Range Bearing (true) Bearing (mag) Slope Elevation
15 Localiser ORG 109.90 MHz 18 nm / 33 km 144.27° 142.81° - 184 ft / 56 m (AMSL)
15 Glidescope ORG 109.90 MHz 10 nm / 19 km 144.26° 142.80° 2.50° 250 ft / 76 m (AMSL)